Baltimore, MD

2:48 PM EST on January 26, 2015 (GMT -0500)
Canton | Change Station
CLOSE
Current Station
Personal Weather Station
Location: Baltimore, MD
Elevation: 56 ft
Nearby Weather Stations
Active Advisory: Winter Weather Advisory Active Notice: Public Information Statement

Elev 56 ft 39.28 °N, 76.57 °W | Updated 2 seconds ago

Snow
Snow
31.1 °F
Feels Like 23 °F
N
9.2
Wind Variable Wind from NE
Gusts 13.6 mph

Today
High -- | Low -- °F
--% Chance of Precip.
Yesterday
High -- | Low -- °F
Precip. -- in
7:18 AM 5:19 PM
Waxing Crescent, 46% visible
Pressure 29.73 in
Visibility 4.0 miles
Clouds Overcast 1100 ft
Windchill 23 °F
Dew Point 28 °F
Humidity 87%
Rainfall 0.04 in
Snow Depth Not available.
UV 1 out of 12
Pollen .10 out of 12
Air Quality Not available.
Flu Activity Not available.
METAR KBWI 261854Z 04011KT 4SM -RASN BR OVC011 M01/M02 A2973 RMK AO2 RAE12B51PLE12 SLP067 P0000 T10061022

More Conditions Fewer Conditions

Pressure 29.73 in
Visibility 4.0 miles
Clouds Overcast 1100 ft
Windchill 23 °F
Dew Point 28 °F
Humidity 87%
Rainfall 0.04 in
Snow Depth Not available.
UV 1 out of 12
Pollen .10 out of 12
Air Quality Not available.
Flu Activity Not available.
METAR KBWI 261854Z 04011KT 4SM -RASN BR OVC011 M01/M02 A2973 RMK AO2 RAE12B51PLE12 SLP067 P0000 T10061022

More Conditions Fewer Conditions

10-Day Weather Forecast

Almanac

Astronomy

Jan. 26, 2015 Rise Set
Actual Time
Civil Twilight
Nautical Twilight
Astronomical Twilight
Moon
Length of Visible Light
Length of Day
Tomorrow will be .
, % of the Moon is Illuminated

Today's Extremes

State Highs State Lows

Community

WunderPhotos

Upload Photos

1,790,338 photos uploaded!

WunderBlogs® & News

Nearby

Air Quality

  Air Quality AQ Index Pollutant
Not available.

Snow Depth

Station Depth Elevation

Earthquake Activity

City Distance Mag. Time & Date
Minimum magnitude displayed is 2.5.

Coastal Water Temperatures

Place Temperature

Nearby Weather Stations